Tiempo atmosférico en la estación meteorológica de Bujaraloz, Zaragoza (357 m.)

Fecha
DESCASC
Temp. máxima en grados centígrados (hora)
DESCASC
Temp. mínima en grados centígrados (hora)
DESCASC
Temp. media en grados centígrados
DESCASC
Racha de viento máxima en m/sg (hora)
DESCASC
Velocidad máxima media en intervalos de 10 minutos(hora)
DESCASC
Precipitaciones diarias en mm
DESCASC
Precipitaciones de 00:00 a 06:00 en mm
DESCASC
Precipitaciones de 06:00 a 12:00 en mm
DESCASC
Precipitaciones de 12:00 a 18:00 en mm
DESCASC
Precipitaciones de 18:00 a 24:00 en mm
DESCASC
21-08-2017 34 (17:50) 13.3 (06:30) 23.7 5.56 (21:30) 3.61 (21:00) 0 0 0 0 0
20-08-2017 32.1 (18:00) 13.5 (07:50) 22.8 10.28 (05:40) 6.39 (05:40) 0 0 0 0 0
19-08-2017 32.2 (17:00) 17.4 (07:20) 24.8 15.83 (00:20) 8.89 (00:20) 0 0 0 0 0
18-08-2017 36.2 (16:40) 20.4 (07:00) 28.3 14.17 (20:30) 9.72 (19:40) 0 0 0 0 0
17-08-2017 35.1 (18:20) 16.7 (00:00) 25.9 8.33 (01:20) 6.11 (02:30) 0 0 0 0 0
16-08-2017 33.4 (18:00) 18.8 (00:00) 26.1 6.67 (23:59) 4.72 (23:59) 0 0 0 0 0
15-08-2017 32.6 (15:30) 18.1 (00:00) 25.3 8.06 (01:10) 5.28 (18:40) 2 0 0 2 0
14-08-2017 34 (16:40) 17.9 (07:10) 25.9 10.28 (19:00) 6.39 (19:00) 0 0 0 0 0
13-08-2017 32.4 (18:00) 14.9 (00:00) 23.7 8.89 (20:00) 5.56 (20:00) 0 0 0 0 0
12-08-2017 29.4 (17:40) 10.5 (00:00) 19.9 9.44 (00:10) 6.11 (00:20) 0 0 0 0 0
11-08-2017 26.8 (17:00) 12 (00:00) 19.4 13.61 (08:50) 9.17 (10:10) 0 0 0 0 0
10-08-2017 24.8 (16:20) 10.4 (00:00) 17.6 19.72 (19:50) 13.61 (19:50) 0 0 0 0 0
09-08-2017 25 (14:00) 12.8 (00:00) 18.9 11.11 (16:00) 7.5 (16:20) 4.4 0 0 1 3.4
08-08-2017 27.7 (16:30) 17.3 (00:00) 22.5 17.22 (14:00) 10.83 (14:50) 0 0 0 0 0
07-08-2017 33.4 (16:00) 20.9 (00:00) 27.2 9.72 (18:10) 6.11 (19:30) 0 0 0 0 0
06-08-2017 31.6 (19:00) 16.7 (00:00) 24.2 12.5 (01:30) 7.5 (01:50) 0 0 0 0 0
05-08-2017 38.8 (17:10) 21.9 (00:00) 30.3 12.78 (21:20) 8.61 (21:20) 0 0 0 0 0
04-08-2017 38.6 (19:30) 20.3 (00:00) 29.4 9.17 (17:10) 4.44 (17:10) 0 0 0 0 0
03-08-2017 39.4 (17:20) 22.3 (00:00) 30.9 6.67 (12:00) 3.89 (12:00) 0 0 0 0 0
02-08-2017 36.2 (16:20) 21.4 (00:00) 28.8 11.67 (16:10) 6.39 (17:30) 0 0 0 0 0
01-08-2017 30.3 (19:00) 18.6 (00:00) 24.4 8.61 (07:50) 4.72 (07:50) 0 0 0 0 0
31-07-2017 34.8 (17:30) 17.5 (00:00) 26.1 9.17 (16:00) 5.28 (20:00) 0 0 0 0 0
30-07-2017 37.5 (17:20) 20.7 (00:00) 29.1 10 (18:20) 6.67 (18:30) 0 0 0 0 0
29-07-2017 35.7 (18:20) 20.1 (00:00) 27.9 7.5 (18:50) 5 (19:00) 0 0 0 0 0
28-07-2017 34.9 (18:30) 17.9 (00:00) 26.4 6.67 (19:50) 4.17 (19:50) 0 0 0 0 0
27-07-2017 36.9 (16:50) 16.7 (00:00) 26.8 9.44 (03:20) 6.39 (03:20) 0 0 0 0 0
26-07-2017 32.4 (17:50) 14 (00:00) 23.2 15.56 (00:20) 10.56 (00:40) 0 0 0 0 0
25-07-2017 27.9 (16:10) 15 (00:00) 21.4 16.39 (22:50) 11.39 (22:50) 0 0 0 0 0
24-07-2017 29.2 (17:30) 17.4 (00:00) 23.3 18.61 (14:20) 12.78 (18:10) 0 0 0 0 0
23-07-2017 28.2 (18:40) 18.3 (00:00) 23.3 8.33 (05:20) 5.56 (05:20) 0 0 0 0 0

Gráficas

Temp. máximas Temp. mínimas Temp. medias Precipitaciones Rachas de viento máximas Velocidades máximas media en intervalos de 10 minutos

Datos horarios

Fecha y hora oficial Temperatura (ºC) Velocidad del viento (km/h) Dirección del viento Racha (km/h) Dirección de racha Precipitación (mm) Presión (hPa) Tendencia (hPa) Humedad (%)
2017-08-21 23:00:00 24.1 6 Este 11 Este 0 975.5 1.4 73
2017-08-21 22:00:00 24.1 9 Este 20 Sudeste 0 975.1 0.8 74
2017-08-21 21:00:00 27.5 13 Este 18 Este 0 974.6 0 58
2017-08-21 20:00:00 31 10 Este 16 Este 0 974.1 -0.9 39
2017-08-21 19:00:00 33.7 7 Nordeste 15 Nordeste 0 974.3 -1.4 28
2017-08-21 18:00:00 33.5 10 Nordeste 17 Nordeste 0 974.6 -2.2 23
2017-08-21 17:00:00 33.3 7 Este 16 Este 0 975 -2.1 22
2017-08-21 16:00:00 32.3 6 Este 19 Nordeste 0 975.7 -2.4 22
2017-08-21 15:00:00 30.6 6 Este 17 Este 0 976.8 -1.6 28
2017-08-21 14:00:00 29.4 7 Este 18 Nordeste 0 977.1 -1.7 30
2017-08-21 13:00:00 27.2 9 Nordeste 15 Nordeste 0 978.1 -0.7 36
2017-08-21 12:00:00 24.4 5 Sur 10 Sudeste 0 978.4 -0.6 45
2017-08-21 11:00:00 21.6 4 Sudeste 10 Este 0 978.8 0.1 56
2017-08-21 10:00:00 19.8 5 Este 9 Este 0 978.8 0.5 64
2017-08-21 09:00:00 17.5 3 Nordeste 7 Este 0 979 0.7 76
2017-08-21 08:00:00 15.8 2 Nordeste 10 Norte 0 978.7 0.2 85
2017-08-21 07:00:00 15 4 Norte 9 Norte 0 978.3 -0.2 82
2017-08-21 06:00:00 14 2 Sudoeste 6 Sur 0 978.3 -0.2 69
2017-08-21 05:00:00 15.2 4 Sudoeste 13 Noroeste 0 978.5 0.2 66
2017-08-21 04:00:00 15.8 3 Oeste 7 Oeste 0 978.5 0.4 59
2017-08-21 03:00:00 16.3 7 Oeste 12 Oeste 0 978.5 0.6 57
2017-08-21 02:00:00 17.5 3 Sudoeste 13 Oeste 0 978.3 0.5 53
2017-08-21 01:00:00 19.4 4 Sudoeste 8 Sudoeste 0 978.1 0.7 46
2017-08-21 00:00:00 19.6 4 Oeste 6 Oeste 0 977.9 1.1 43
2017-08-20 23:00:00 22.3 0 Calma 12 Oeste 0 977.8 1.4 35
2017-08-20 22:00:00 23.8 12 Oeste 20 Oeste 0 977.4 0.8 29
2017-08-20 21:00:00 25.9 9 Sudoeste 24 Sudoeste 0 976.8 -0.3 27
2017-08-20 20:00:00 30.3 10 Sudoeste 23 Oeste 0 976.4 -1.1 23
2017-08-20 19:00:00 31.7 13 Oeste 22 Oeste 0 976.6 -1.6 17
2017-08-20 18:00:00 31.6 10 Oeste 22 Sudoeste 0 977.1 -1.8 19
2017-08-20 17:00:00 31.4 14 Sudoeste 26 Sudoeste 0 977.5 -2 21
2017-08-20 16:00:00 30.2 11 Sudoeste 22 Oeste 0 978.2 -1.7 22
2017-08-20 15:00:00 28.7 8 Sudoeste 28 Sudoeste 0 978.9 -1.6 27
2017-08-20 14:00:00 26.8 10 Sudoeste 23 Sudoeste 0 979.5 -1.3 32
2017-08-20 13:00:00 24.4 10 Sudoeste 29 Oeste 0 979.9 -0.4 40
2017-08-20 12:00:00 21.9 17 Oeste 27 Sudoeste 0 980.5 0.5 47
2017-08-20 11:00:00 19.6 16 Oeste 29 Oeste 0 980.8 1.3 54
2017-08-20 10:00:00 17.7 23 Oeste 33 Oeste 0 980.3 1.4 62
2017-08-20 09:00:00 15.5 22 Oeste 32 Oeste 0 980 1.3 71
2017-08-20 08:00:00 13.8 15 Oeste 28 Oeste 0 979.5 0.9 79
2017-08-20 07:00:00 14.3 20 Oeste 31 Oeste 0 978.9 0.4 77
2017-08-20 06:00:00 14.6 18 Oeste 37 Oeste 0 978.7 0.4 75
2017-08-20 05:00:00 15.6 22 Oeste 34 Oeste 0 978.6 0.4 71
2017-08-20 04:00:00 16.4 18 Oeste 31 Oeste 0 978.5 0.3 68
2017-08-20 03:00:00 17.2 13 Sudoeste 25 Oeste 0 978.3 0.4 66
2017-08-20 02:00:00 18.5 18 Oeste 32 Sudoeste 0 978.2 0.7 63
2017-08-20 01:00:00 20.4 12 Oeste 35 Oeste 0 978.2 1.6 54
2017-08-20 00:00:00 22.1 17 Oeste 30 Sudoeste 0 977.9 1.9 43
2017-08-19 23:00:00 22.8 14 Sudoeste 30 Oeste 0 977.5 1.7 37
2017-08-19 22:00:00 24.6 15 Sudoeste 23 Oeste 0 976.6 1 39
2017-08-19 21:00:00 27 12 Sudoeste 22 Sudoeste 0 976 0.2 33
2017-08-19 20:00:00 29.7 10 Sudoeste 23 Sudoeste 0 975.8 -0.4 30
2017-08-19 19:00:00 31.7 11 Sudoeste 25 Oeste 0 975.6 -1 27
2017-08-19 18:00:00 31.7 12 Sudoeste 26 Sudoeste 0 975.8 -1.4 31
2017-08-19 17:00:00 32.2 11 Sudoeste 29 Oeste 0 976.2 -1.3 31
2017-08-19 16:00:00 31.4 10 Sur 30 Sur 0 976.6 -1.3 32
2017-08-19 15:00:00 28.8 8 Este 19 Este 0 977.2 -1 42
2017-08-19 14:00:00 27.7 9 Este 18 Este 0 977.5 -0.9 46
2017-08-19 13:00:00 26.4 7 Nordeste 22 Oeste 0 977.9 -0.2 49
2017-08-19 12:00:00 24.4 8 Oeste 19 Oeste 0 978.2 0.4 50
2017-08-19 11:00:00 22.3 10 Oeste 21 Oeste 0 978.4 1.3 56
2017-08-19 10:00:00 20.8 14 Oeste 26 Oeste 0 978.1 1.3 63
2017-08-19 09:00:00 19.1 16 Oeste 27 Oeste 0 977.8 1.6 71
2017-08-19 08:00:00 17.4 9 Sudoeste 20 Sudoeste 0 977.1 1.2 76
2017-08-19 07:00:00 17.5 14 Sudoeste 24 Oeste 0 976.8 1.1 75
2017-08-19 06:00:00 17.9 14 Sudoeste 28 Sudoeste 0 976.2 0.7 75
2017-08-19 05:00:00 18.3 20 Oeste 32 Sudoeste 0 975.9 0.3 73
2017-08-19 04:00:00 19 21 Oeste 40 Oeste 0 975.7 0.5 71
2017-08-19 03:00:00 19.7 24 Oeste 44 Oeste 0 975.5 0.4 68
2017-08-19 02:00:00 20.7 26 Oeste 40 Oeste 0 975.6 0.8 66
2017-08-19 01:00:00 20.8 25 Oeste 57 Oeste 0 975.2 1.1 69
2017-08-19 00:00:00 22.2 30 Oeste 49 Oeste 0 975.1 1.6 63
2017-08-18 23:00:00 23.3 29 Oeste 44 Sudoeste 0 974.8 2 59
2017-08-18 22:00:00 25.1 31 Oeste 48 Oeste 0 974.1 1.8 49
2017-08-18 21:00:00 27.1 31 Oeste 51 Oeste 0 973.5 1.4 43
2017-08-18 20:00:00 30.5 30 Oeste 49 Oeste 0 972.8 0.6 40
2017-08-18 19:00:00 32.9 27 Oeste 47 Oeste 0 972.3 -0.4 38
2017-08-18 18:00:00 34.4 5 Este 19 Noroeste 0 972.1 -1.3 36
2017-08-18 17:00:00 35.8 10 Norte 27 Oeste 0 972.2 -1.5 36
2017-08-18 16:00:00 35.3 14 Oeste 27 Noroeste 0 972.7 -1.6 34
2017-08-18 15:00:00 34.5 6 Sudoeste 22 Oeste 0 973.4 -1.6 37
2017-08-18 14:00:00 31.7 4 Norte 10 Este 0 973.7 -1.7 46
2017-08-18 13:00:00 29.6 5 Sur 14 Este 0 974.3 -1 52
2017-08-18 12:00:00 27.4 5 Nordeste 13 Sudeste 0 975 -0.1 61
2017-08-18 11:00:00 25.9 4 Nordeste 11 Nordeste 0 975.4 0.4 67
2017-08-18 10:00:00 24.4 6 Nordeste 15 Nordeste 0 975.3 0.6 73
2017-08-18 09:00:00 22.6 8 Norte 13 Norte 0 975.1 0.4 76
2017-08-18 08:00:00 20.7 7 Norte 12 Norte 0 975 -0.1 82
2017-08-18 07:00:00 20.5 5 Norte 13 Norte 0 974.7 -0.6 83
2017-08-18 06:00:00 20.7 5 Norte 12 Norte 0 974.7 -0.8 83
2017-08-18 05:00:00 21.1 5 Norte 17 Nordeste 0 975.1 -0.7 82
2017-08-18 04:00:00 21.5 7 Norte 19 Nordeste 0 975.3 -0.2 81
2017-08-18 03:00:00 21.5 10 Nordeste 19 Nordeste 0 975.5 0.1 83
2017-08-18 02:00:00 21.7 9 Norte 16 Nordeste 0 975.8 0.6 80
2017-08-18 01:00:00 22.5 10 Nordeste 17 Nordeste 0 975.5 0.5 75
2017-08-18 00:00:00 23.7 5 Nordeste 14 Este 0 975.4 0.7 69
2017-08-17 23:00:00 24.3 9 Este 17 Este 0 975.2 0.9 67
2017-08-17 22:00:00 26.3 11 Este 18 Este 0 975 0.6 56
2017-08-17 21:00:00 28.2 11 Este 19 Este 0 974.7 -0.1 49
2017-08-17 20:00:00 34.3 5 Norte 12 Nordeste 0 974.3 -0.9 28
2017-08-17 19:00:00 34.7 6 Norte 12 Nordeste 0 974.4 -1.5 26
2017-08-17 18:00:00 34.3 9 Nordeste 15 Nordeste 0 974.8 -1.7 28
2017-08-17 17:00:00 34.3 8 Nordeste 14 Sudeste 0 975.2 -2.2 25
2017-08-17 16:00:00 33.6 6 Nordeste 13 Sudeste 0 975.9 -2 22
2017-08-17 15:00:00 33.2 6 Sudeste 13 Sudoeste 0 976.5 -1.8 19
2017-08-17 14:00:00 31.9 4 Sudoeste 15 Sur 0 977.4 -1.2 20
2017-08-17 13:00:00 29.6 6 Sudoeste 17 Sudoeste 0 977.9 -0.6 24
2017-08-17 12:00:00 27.1 8 Sudoeste 17 Sudoeste 0 978.3 0 29
2017-08-17 11:00:00 24.5 10 Sudoeste 22 Sudoeste 0 978.6 0.6 38
2017-08-17 10:00:00 21.8 6 Oeste 13 Oeste 0 978.5 0.7 47
2017-08-17 09:00:00 18.7 4 Sudoeste 15 Oeste 0 978.3 0.8 61
2017-08-17 08:00:00 17.3 8 Sudoeste 18 Sudoeste 0 978 0.6 64
2017-08-17 07:00:00 17.2 14 Oeste 22 Oeste 0 977.8 0.1 64
2017-08-17 06:00:00 17 12 Oeste 21 Oeste 0 977.5 0.2 66
2017-08-17 05:00:00 17.4 10 Oeste 14 Oeste 0 977.4 0.1 65
2017-08-17 04:00:00 18.4 10 Oeste 19 Oeste 0 977.7 0.5 60
2017-08-17 03:00:00 20.1 14 Oeste 29 Oeste 0 977.3 0.4 54
2017-08-17 02:00:00 21 18 Oeste 30 Sudoeste 0 977.3 0.6 57
2017-08-17 01:00:00 22.8 13 Sudoeste 25 Sudoeste 0 977.2 0.9 55
2017-08-17 00:00:00 23.8 17 Oeste 24 Oeste 0 976.9 1.2 51
2017-08-16 23:00:00 25.6 11 Sudoeste 21 Sudoeste 0 976.7 1.4 45
2017-08-16 22:00:00 26.8 4 Sur 12 Sur 0 976.3 1.2 59
2017-08-16 21:00:00 29.8 3 Sudeste 6 Este 0 975.7 0.4 55
2017-08-16 20:00:00 31.1 6 Este 12 Este 0 975.3 -0.3 48
2017-08-16 19:00:00 32.6 6 Nordeste 14 Nordeste 0 975.1 -1.2 45
2017-08-16 18:00:00 33.1 5 Norte 13 Nordeste 0 975.3 -1.6 42
2017-08-16 17:00:00 31.3 3 Nordeste 17 Nordeste 0 975.6 -1.8 46
2017-08-16 16:00:00 30.2 5 Este 13 Sudeste 0 976.3 -1.7 48
2017-08-16 15:00:00 30.2 4 Sur 13 Sur 0 976.9 -1.3 47
2017-08-16 14:00:00 28.1 5 Este 13 Sur 0 977.4 -0.9 53
2017-08-16 13:00:00 26.1 3 Oeste 11 Sudoeste 0 978 -0.1 63
2017-08-16 12:00:00 23.8 4 Nordeste 12 Sudeste 0 978.2 0.4 73
2017-08-16 11:00:00 22.2 6 Oeste 14 Sudoeste 0 978.3 0.7 75
2017-08-16 10:00:00 21.5 8 Oeste 12 Oeste 0 978.1 1 78
2017-08-16 09:00:00 20 5 Oeste 14 Oeste 0 977.8 1 83
2017-08-16 08:00:00 19 10 Oeste 16 Oeste 0 977.6 1 86
2017-08-16 07:00:00 18.8 8 Oeste 12 Oeste 0 977.1 0.3 87
2017-08-16 06:00:00 19.3 6 Oeste 11 Sudoeste 0 976.8 0.1 90
2017-08-16 05:00:00 20.3 5 Noroeste 8 Noroeste 0 976.6 0 86
2017-08-16 04:00:00 19.6 4 Noroeste 9 Oeste 0 976.8 0.2 89
2017-08-16 03:00:00 20 6 Oeste 8 Oeste 0 976.7 0.1 85
2017-08-16 02:00:00 20.6 4 Norte 8 Nordeste 0 976.6 0.7 84
2017-08-16 01:00:00 21.2 5 Nordeste 14 Nordeste 0 976.6 1 82
2017-08-16 00:00:00 21.7 7 Nordeste 16 Nordeste 0 976.6 1.7 79
2017-08-15 23:00:00 22.3 9 Nordeste 20 Norte 0 975.9 1.7 76
2017-08-15 22:00:00 23.5 8 Nordeste 14 Nordeste 0 975.6 1.7 74
2017-08-15 21:00:00 26.5 3 Norte 11 Nordeste 0 974.9 0.8 63
2017-08-15 20:00:00 27.5 5 Nordeste 24 Este 0 974.2 -0.5 60
2017-08-15 19:00:00 29.3 12 Este 27 Este 0 973.9 -0.4 56
2017-08-15 18:00:00 29.3 13 Este 25 Este 0 974.1 -0.5 57
2017-08-15 17:00:00 25.5 13 Nordeste 24 Nordeste 1.8 974.7 -0.7 79
2017-08-15 16:00:00 32.3 15 Nordeste 29 Nordeste 0 974.3 -1.7 41
2017-08-15 15:00:00 31.3 14 Nordeste 26 Nordeste 0 974.6 -1.7 42
2017-08-15 14:00:00 29 14 Nordeste 23 Nordeste 0.2 975.4 -1 47
2017-08-15 13:00:00 28.2 11 Este 22 Este 0 976 -0.4 49
2017-08-15 12:00:00 26.5 14 Este 27 Nordeste 0 976.3 -0.1 56
2017-08-15 11:00:00 24.7 17 Nordeste 29 Nordeste 0 976.4 0 65
2017-08-15 10:00:00 22.6 14 Nordeste 21 Nordeste 0 976.4 0.3 70
2017-08-15 09:00:00 20.6 11 Nordeste 21 Nordeste 0 976.4 0.6 77
2017-08-15 08:00:00 18.4 9 Nordeste 15 Nordeste 0 976.4 0.6 81
2017-08-15 07:00:00 18.2 5 Norte 15 Norte 0 976.1 0.3 82
2017-08-15 06:00:00 18.7 6 Norte 17 Nordeste 0 975.8 0 78
2017-08-15 05:00:00 18.8 7 Norte 15 Nordeste 0 975.8 0.2 77
2017-08-15 04:00:00 19.1 6 Norte 21 Nordeste 0 975.8 0.3 73
2017-08-15 03:00:00 19.6 14 Nordeste 26 Nordeste 0 975.8 0.6 70
2017-08-15 02:00:00 20.4 12 Nordeste 29 Nordeste 0 975.6 0.6 68
2017-08-15 01:00:00 20.6 15 Nordeste 24 Nordeste 0 975.5 1.3 68
2017-08-15 00:00:00 20.9 14 Nordeste 24 Este 0 975.2 1.7 65
2017-08-14 23:00:00 21.3 10 Nordeste 24 Este 0 975 1.8 65
2017-08-14 22:00:00 23.4 18 Este 27 Este 0 974.2 1.3 56
2017-08-14 21:00:00 25.2 16 Este 32 Este 0 973.5 0.5 49
2017-08-14 20:00:00 28.3 22 Este 34 Este 0 973.2 0.1 41
2017-08-14 19:00:00 30.6 23 Este 37 Este 0 972.9 -0.6 37
2017-08-14 18:00:00 32.4 19 Este 29 Nordeste 0 973 -1.3 37
2017-08-14 17:00:00 33.8 16 Nordeste 28 Nordeste 0 973.1 -1.8 30
2017-08-14 16:00:00 33.4 12 Nordeste 24 Nordeste 0 973.5 -2 34
2017-08-14 15:00:00 32.2 13 Este 27 Nordeste 0 974.3 -1.6 35
2017-08-14 14:00:00 30.8 9 Nordeste 23 Nordeste 0 974.9 -1.1 39
2017-08-14 13:00:00 28.6 10 Este 18 Nordeste 0 975.5 -0.4 44
2017-08-14 12:00:00 26.2 10 Nordeste 18 Nordeste 0 975.9 0.1 56
2017-08-14 11:00:00 24.4 10 Este 21 Este 0 976 0.5 63
2017-08-14 10:00:00 22.9 10 Nordeste 22 Nordeste 0 975.9 0.6 71
2017-08-14 09:00:00 20.6 9 Nordeste 15 Norte 0 975.8 0.6 78
2017-08-14 08:00:00 18.3 5 Norte 13 Norte 0 975.5 0.3 81
2017-08-14 07:00:00 18 8 Norte 16 Nordeste 0 975.3 -0.1 84
2017-08-14 06:00:00 18.1 8 Norte 17 Norte 0 975.2 -0.4 81
2017-08-14 05:00:00 18.3 11 Nordeste 21 Nordeste 0 975.2 -0.3 82
2017-08-14 04:00:00 18.9 11 Nordeste 20 Nordeste 0 975.4 -0.1 79
2017-08-14 03:00:00 19.3 11 Nordeste 20 Nordeste 0 975.6 0.3 81
2017-08-14 02:00:00 19.1 10 Nordeste 20 Nordeste 0 975.5 0.7 81
2017-08-14 01:00:00 19.5 9 Nordeste 14 Nordeste 0 975.5 1.3 80
2017-08-14 00:00:00 20.6 9 Nordeste 14 Nordeste 0 975.3 1.5 76
2017-08-13 23:00:00 21.4 10 Nordeste 16 Este 0 974.8 1.4 73
2017-08-13 22:00:00 23.1 10 Este 28 Este 0 974.2 0.8 66
2017-08-13 21:00:00 26.4 15 Este 26 Sudeste 0 973.8 -0.2 52
2017-08-13 20:00:00 29.4 20 Este 32 Este 0 973.4 -1.2 42
2017-08-13 19:00:00 31.5 11 Este 21 Nordeste 0 973.4 -1.8 36
2017-08-13 18:00:00 32.4 7 Norte 20 Nordeste 0 974 -1.9 27
2017-08-13 17:00:00 31.4 8 Nordeste 18 Este 0 974.6 -2.1 30
2017-08-13 16:00:00 30.4 10 Este 17 Este 0 975.2 -2.1 35
2017-08-13 15:00:00 29.3 9 Nordeste 14 Este 0 975.9 -1.9 34
2017-08-13 14:00:00 28 5 Nordeste 13 Nordeste 0 976.7 -1.3 37
2017-08-13 13:00:00 26.2 4 Este 10 Este 0 977.3 -0.4 45
2017-08-13 12:00:00 24.3 4 Sudoeste 13 Sudoeste 0 977.8 0.3 50
2017-08-13 11:00:00 22.2 4 Sur 10 Sur 0 978 0.8 60
2017-08-13 10:00:00 19.9 4 Este 7 Este 0 977.7 0.7 70
2017-08-13 09:00:00 18.2 3 Este 8 Norte 0 977.5 0.6 73
2017-08-13 08:00:00 15.8 4 Norte 10 Norte 0 977.2 0.2 81
2017-08-13 07:00:00 15.2 0 Calma 12 Noroeste 0 977 -0.3 79
2017-08-13 06:00:00 16 3 Norte 10 Noroeste 0 976.9 -0.8 76
2017-08-13 05:00:00 15.9 3 Noroeste 8 Nordeste 0 977 -0.9 76
2017-08-13 04:00:00 15.6 3 Oeste 5 Nordeste 0 977.3 -0.5 76
2017-08-13 03:00:00 16.4 0 Calma 8 Oeste 0 977.7 -0.1 70
2017-08-13 02:00:00 17.4 7 Oeste 15 Oeste 0 977.9 0.4 70
2017-08-13 01:00:00 19.8 4 Nordeste 7 Nordeste 0 977.8 0.7 58
2017-08-13 00:00:00 20.1 3 Nordeste 12 Sudeste 0 977.8 1.3 52
2017-08-12 23:00:00 20.8 0 Calma 7 Este 0 977.5 0.9 56
2017-08-12 22:00:00 23.6 7 Este 10 Este 0 977.1 0.5 52
2017-08-12 21:00:00 27 0 Calma 8 Sudoeste 0 976.5 -0.5 36
2017-08-12 20:00:00 26.2 4 Este 11 Este 0 976.6 -0.8 39
2017-08-12 19:00:00 27.8 9 Este 15 Este 0 976.6 -1.7 34
2017-08-12 18:00:00 28.8 9 Este 21 Este 0 977 -1.9 33
2017-08-12 17:00:00 28.2 10 Este 19 Este 0 977.4 -2.4 31
2017-08-12 16:00:00 27.4 7 Este 19 Este 0 978.3 -1.8 32
2017-08-12 15:00:00 25.8 6 Nordeste 17 Nordeste 0 978.9 -1.7 35
2017-08-12 14:00:00 24.8 5 Nordeste 15 Sudeste 0 979.8 -0.9 40
2017-08-12 13:00:00 23.1 8 Sudeste 18 Este 0 980.1 -0.8 43
2017-08-12 12:00:00 21.3 5 Este 12 Este 0 980.6 -0.1 49
2017-08-12 11:00:00 18.9 4 Sudoeste 15 Sudoeste 0 980.7 0.7 55
2017-08-12 10:00:00 16.4 7 Sudoeste 17 Oeste 0 980.9 1.3 63
2017-08-12 09:00:00 13.8 6 Sudoeste 12 Sudoeste 0 980.7 1.4 75
2017-08-12 08:00:00 11.5 4 Oeste 10 Oeste 0 980 0.7 80
2017-08-12 07:00:00 11.2 5 Sudoeste 14 Oeste 0 979.6 0.2 82
2017-08-12 06:00:00 11 12 Oeste 14 Oeste 0 979.3 0.1 82
2017-08-12 05:00:00 10.9 8 Oeste 14 Oeste 0 979.3 0.2 80
2017-08-12 04:00:00 12.2 8 Oeste 19 Sudoeste 0 979.4 0.4 75
2017-08-12 03:00:00 13 13 Oeste 23 Oeste 0 979.2 0.6 74
2017-08-12 02:00:00 14.2 15 Oeste 25 Sudoeste 0 979.1 0.8 68
2017-08-12 01:00:00 15.9 14 Sudoeste 34 Oeste 0 979 0.8 62
2017-08-12 00:00:00 17 19 Sudoeste 36 Sudoeste 0 978.6 1.1 57
2017-08-11 23:00:00 18.1 21 Oeste 37 Oeste 0 978.3 1 52
2017-08-11 22:00:00 19.6 16 Oeste 31 Oeste 0 978.2 1.1 46
2017-08-11 21:00:00 22.3 23 Oeste 39 Oeste 0 977.5 0.1 37
2017-08-11 20:00:00 24.5 29 Oeste 48 Oeste 0 977.3 -0.3 31
2017-08-11 19:00:00 25.6 29 Oeste 46 Oeste 0 977.1 -1 29
2017-08-11 18:00:00 26.2 28 Oeste 46 Oeste 0 977.4 -1.2 28
2017-08-11 17:00:00 26.6 24 Oeste 41 Oeste 0 977.6 -1.3 26
2017-08-11 16:00:00 25.8 20 Oeste 40 Oeste 0 978.1 -1.5 31
2017-08-11 15:00:00 25 19 Oeste 38 Sudoeste 0 978.6 -1.3 33
2017-08-11 14:00:00 23.9 21 Oeste 38 Oeste 0 978.9 -1.3 36
2017-08-11 13:00:00 21.7 22 Oeste 37 Oeste 0 979.6 -0.4 42
2017-08-11 12:00:00 20.4 25 Oeste 39 Oeste 0 979.9 -0.1 45
2017-08-11 11:00:00 18.4 28 Oeste 45 Oeste 0 980.2 0.4 49
2017-08-11 10:00:00 16.7 29 Oeste 44 Oeste 0 980 0.3 57
2017-08-11 09:00:00 14.5 26 Oeste 49 Oeste 0 980 0.4 67
2017-08-11 08:00:00 12.5 22 Oeste 35 Oeste 0 979.8 0.5 76
2017-08-11 07:00:00 12.3 20 Oeste 34 Sudoeste 0 979.7 0.3 75
2017-08-11 06:00:00 12.5 14 Sudoeste 45 Oeste 0 979.6 0 69
2017-08-11 05:00:00 13.1 29 Oeste 44 Oeste 0 979.3 -0.9 66
2017-08-11 04:00:00 13.3 24 Oeste 39 Oeste 0 979.4 -0.6 67
2017-08-11 03:00:00 13.8 21 Sudoeste 46 Sudoeste 0 979.6 -0.4 69
2017-08-11 02:00:00 14.2 27 Oeste 46 Oeste 0 980.2 0.3 66
2017-08-11 01:00:00 14.8 24 Sudoeste 43 Sudoeste 0 980 0.5 61
2017-08-11 00:00:00 15.2 22 Oeste 36 Oeste 0 980 1.3 63
2017-08-10 23:00:00 16.3 24 Oeste 40 Oeste 0 979.9 1.5 62
2017-08-10 22:00:00 17.7 24 Oeste 47 Oeste 0 979.5 1.4 58
2017-08-10 21:00:00 19.6 35 Oeste 59 Oeste 0 978.7 0.3 53
2017-08-10 20:00:00 21.5 43 Oeste 71 Oeste 0 978.4 -0.1 46
2017-08-10 19:00:00 23.7 36 Oeste 55 Oeste 0 978.1 -0.8 40
2017-08-10 18:00:00 24 35 Oeste 54 Oeste 0 978.4 -0.8 41
2017-08-10 17:00:00 24 36 Oeste 59 Oeste 0 978.5 -0.9 42
2017-08-10 16:00:00 24.3 33 Oeste 57 Oeste 0 978.9 -0.7 43
2017-08-10 15:00:00 24.2 28 Oeste 48 Oeste 0 979.2 -0.8 40
2017-08-10 14:00:00 22.7 26 Oeste 44 Oeste 0 979.4 -0.9 43
2017-08-10 13:00:00 21.7 25 Oeste 42 Oeste 0 979.6 -0.5 49
2017-08-10 12:00:00 20.3 26 Oeste 37 Oeste 0 980 0.1 55
2017-08-10 11:00:00 18.4 23 Oeste 33 Oeste 0 980.3 1.1 59
2017-08-10 10:00:00 16.2 24 Oeste 37 Sudoeste 0 980.1 1.3 71
2017-08-10 09:00:00 13.3 19 Oeste 30 Oeste 0 979.9 1.2 81
2017-08-10 08:00:00 11.2 17 Oeste 31 Oeste 0 979.2 0.7 86
2017-08-10 07:00:00 10.4 19 Oeste 28 Oeste 0 978.8 0.1 88
2017-08-10 06:00:00 10.7 13 Sudoeste 27 Oeste 0 978.7 -0.6 88
2017-08-10 05:00:00 10.7 17 Oeste 30 Oeste 0 978.5 -0.7 89
2017-08-10 04:00:00 10.8 18 Oeste 29 Sudoeste 0 978.7 -0.6 86
2017-08-10 03:00:00 11.2 17 Oeste 32 Oeste 0 979.3 0.3 85
2017-08-10 02:00:00 11.9 23 Oeste 37 Oeste 0 979.2 0.5 83
2017-08-10 01:00:00 12.5 18 Oeste 33 Oeste 0 979.3 1.3 79
2017-08-10 00:00:00 13.6 9 Oeste 22 Oeste 0 979 1.8 77
2017-08-09 23:00:00 14.4 8 Sudoeste 23 Oeste 0.2 978.7 1.8 79
2017-08-09 22:00:00 14.9 17 Oeste 26 Oeste 0.2 978 1.4 79
2017-08-09 21:00:00 15.1 14 Oeste 27 Oeste 0 977.2 1 88
2017-08-09 20:00:00 15.1 8 Sudoeste 23 Oeste 1.4 976.9 1.2 93
2017-08-09 19:00:00 15.3 18 Oeste 34 Oeste 1.6 976.6 1.2 86
2017-08-09 18:00:00 17 14 Oeste 32 Oeste 1 976.2 1.4 84
2017-08-09 17:00:00 20.5 16 Oeste 40 Noroeste 0 975.7 0.7 52
2017-08-09 16:00:00 21.7 26 Oeste 40 Oeste 0 975.4 -0.3 46
2017-08-09 15:00:00 23.9 9 Noroeste 28 Oeste 0 974.8 -0.8 37
2017-08-09 14:00:00 24.5 12 Oeste 22 Oeste 0 975 -0.6 36
2017-08-09 13:00:00 21 11 Oeste 21 Oeste 0 975.7 0.3 50
2017-08-09 12:00:00 19.5 14 Oeste 23 Oeste 0 975.6 0.6 52
2017-08-09 11:00:00 18.2 13 Oeste 28 Oeste 0 975.6 0.5 57
2017-08-09 10:00:00 17.2 18 Oeste 26 Oeste 0 975.4 0.4 62
2017-08-09 09:00:00 15.4 17 Oeste 24 Oeste 0 975 -0.1 70
2017-08-09 08:00:00 13.5 8 Sudoeste 17 Oeste 0 975.1 0.3 77
2017-08-09 07:00:00 12.9 11 Oeste 18 Oeste 0 975 0.2 78
2017-08-09 06:00:00 13.6 12 Oeste 30 Oeste 0 975.1 0.1 76
2017-08-09 05:00:00 13.3 21 Oeste 33 Oeste 0 974.8 -1.1 76
2017-08-09 04:00:00 14.1 23 Oeste 33 Oeste 0 974.8 -1.2 71
2017-08-09 03:00:00 15 22 Oeste 36 Oeste 0 975 -0.4 66
2017-08-09 02:00:00 15.6 13 Sudoeste 28 Oeste 0 975.9 1 65
2017-08-09 01:00:00 16.8 10 Sur 24 Oeste 0 976 2.7 63
2017-08-09 00:00:00 17.3 8 Sudoeste 19 Sur 0 975.4 2.9 57
2017-08-08 23:00:00 19.1 8 Sur 23 Oeste 0 974.9 2.2 49
2017-08-08 22:00:00 19.9 15 Oeste 47 Oeste 0 973.3 0.6 46
2017-08-08 21:00:00 22.9 30 Oeste 48 Oeste 0 972.5 0 39
2017-08-08 20:00:00 24.9 32 Oeste 49 Oeste 0 972.7 0.4 33
2017-08-08 19:00:00 26.7 35 Oeste 52 Oeste 0 972.7 0.6 27
2017-08-08 18:00:00 27 33 Oeste 59 Oeste 0 972.5 0.2 26
2017-08-08 17:00:00 27.5 38 Oeste 57 Oeste 0 972.3 -0.1 29
2017-08-08 16:00:00 27 35 Oeste 55 Oeste 0 972.1 -0.4 33
2017-08-08 15:00:00 26.1 36 Oeste 60 Oeste 0 972.3 0 34
2017-08-08 14:00:00 25.8 38 Oeste 62 Oeste 0 972.4 0.3 36
2017-08-08 13:00:00 25 36 Oeste 57 Oeste 0 972.5 0.7 38
2017-08-08 12:00:00 22.9 37 Oeste 55 Oeste 0 972.3 1 46
2017-08-08 11:00:00 22 31 Oeste 51 Sudoeste 0 972.1 1.7 52
2017-08-08 10:00:00 20.3 31 Oeste 47 Oeste 0 971.8 1.7 61
2017-08-08 09:00:00 18.7 27 Oeste 47 Sudoeste 0 971.3 1.6 68
2017-08-08 08:00:00 18.1 29 Oeste 47 Oeste 0 970.4 1.2 72
2017-08-08 07:00:00 18.4 22 Oeste 37 Oeste 0 970.1 1.4 70
2017-08-08 06:00:00 19.3 7 Oeste 32 Oeste 0 969.7 1.3 68
2017-08-08 05:00:00 20.4 26 Oeste 40 Oeste 0 969.2 1.1 69
2017-08-08 04:00:00 21.4 22 Oeste 40 Oeste 0 968.7 0.9 72
2017-08-08 03:00:00 22.7 12 Oeste 22 Oeste 0 968.4 0.7 82
2017-08-08 02:00:00 23 5 Norte 25 Norte 0 968.1 0.2 87
2017-08-08 01:00:00 23.2 7 Norte 18 Nordeste 0 967.8 -0.5 86
2017-08-08 00:00:00 23.3 9 Nordeste 22 Nordeste 0 967.7 -0.4 87
2017-08-07 23:00:00 23.9 13 Nordeste 24 Nordeste 0 967.9 -0.2 84
2017-08-07 22:00:00 24.7 13 Nordeste 31 Este 0 968.3 -0.3 79
2017-08-07 21:00:00 26.2 16 Este 33 Este 0 968.1 -0.7 73
2017-08-07 20:00:00 27.6 21 Este 35 Este 0 968.1 -1.2 68
2017-08-07 19:00:00 29.8 19 Este 35 Este 0 968.6 -1.1 59
2017-08-07 18:00:00 31.1 20 Nordeste 35 Nordeste 0 968.8 -2 53
2017-08-07 17:00:00 32.9 18 Este 33 Este 0 969.3 -2.4 48
2017-08-07 16:00:00 33.4 18 Nordeste 31 Nordeste 0 969.7 -3 47
2017-08-07 15:00:00 32 18 Nordeste 34 Nordeste 0 970.8 -2.3 49
2017-08-07 14:00:00 31.2 13 Nordeste 30 Nordeste 0 971.7 -1.6 53
2017-08-07 13:00:00 29.5 12 Nordeste 23 Este 0 972.7 -0.9 58
2017-08-07 12:00:00 28.2 12 Este 22 Este 0 973.1 -0.7 58
2017-08-07 11:00:00 26.7 10 Este 22 Este 0 973.3 -0.3 69
2017-08-07 10:00:00 24.6 10 Este 21 Este 0 973.6 0.1 80
2017-08-07 09:00:00 23 8 Nordeste 14 Nordeste 0 973.8 0.3 85
2017-08-07 08:00:00 21.4 6 Nordeste 11 Nordeste 0 973.6 -0.1 89
2017-08-07 07:00:00 21 5 Norte 10 Nordeste 0 973.5 -0.7 89
2017-08-07 06:00:00 21.1 4 Norte 10 Nordeste 0 973.5 -0.8 88
2017-08-07 05:00:00 21.5 6 Norte 11 Nordeste 0 973.7 -0.8 89
2017-08-07 04:00:00 22 3 Norte 13 Nordeste 0 974.2 -0.5 86
2017-08-07 03:00:00 22.5 11 Este 17 Este 0 974.3 -0.5 85
2017-08-07 02:00:00 23.2 8 Este 13 Este 0 974.5 -0.3 80
2017-08-07 01:00:00 23.3 6 Este 14 Este 0 974.7 0.5 78
2017-08-07 00:00:00 23.7 10 Este 17 Este 0 974.8 1 74
2017-08-06 23:00:00 24.6 10 Este 18 Este 0 974.8 1 69
2017-08-06 22:00:00 25 10 Este 17 Este 0 974.2 0 67
2017-08-06 21:00:00 27.5 9 Nordeste 14 Nordeste 0 973.8 -0.9 55
2017-08-06 20:00:00 30.8 5 Norte 15 Nordeste 0 973.8 -1.5 40
2017-08-06 19:00:00 31.5 6 Norte 14 Norte 0 974.2 -1.6 39
2017-08-06 18:00:00 31.1 7 Nordeste 15 Nordeste 0 974.7 -1.7 38
2017-08-06 17:00:00 30.7 4 Nordeste 18 Sudeste 0 975.3 -1.6 36
2017-08-06 16:00:00 29.9 8 Sudeste 19 Sudeste 0 975.8 -1.8 39
2017-08-06 15:00:00 28.6 6 Este 15 Sur 0 976.4 -1.5 38
2017-08-06 14:00:00 27.9 8 Sudoeste 23 Sudoeste 0 976.9 -1 38
2017-08-06 13:00:00 26.6 8 Sudoeste 19 Sur 0 977.6 -0.3 42
2017-08-06 12:00:00 24.1 7 Sur 19 Sudoeste 0 977.9 0.6 49
2017-08-06 11:00:00 22 6 Sudoeste 19 Oeste 0 977.9 1.2 55
2017-08-06 10:00:00 20.2 13 Oeste 24 Oeste 0 977.9 1.9 60
2017-08-06 09:00:00 18.2 13 Oeste 22 Sudoeste 0 977.3 2 68
2017-08-06 08:00:00 16.9 12 Oeste 22 Oeste 0 976.7 1.8 76
2017-08-06 07:00:00 16.9 14 Oeste 28 Oeste 0 976 1.2 76
2017-08-06 06:00:00 17.3 17 Oeste 28 Oeste 0 975.3 0.6 77
2017-08-06 05:00:00 17.7 18 Oeste 31 Oeste 0 974.9 0.4 76
2017-08-06 04:00:00 18.2 22 Oeste 35 Sudoeste 0 974.8 0.7 73
2017-08-06 03:00:00 18.6 25 Oeste 39 Oeste 0 974.7 0.6 72
2017-08-06 02:00:00 19.1 26 Oeste 45 Oeste 0 974.5 1 70
2017-08-06 01:00:00 20.3 23 Oeste 40 Oeste 0 974.1 1.6 65
2017-08-06 00:00:00 22.5 22 Oeste 37 Oeste 0 974.1 2.4 59
2017-08-05 23:00:00 23.9 22 Oeste 39 Oeste 0 973.5 2.1 56
2017-08-05 22:00:00 26.2 22 Oeste 46 Oeste 0 972.5 1.4 52
2017-08-05 21:00:00 29.2 25 Oeste 44 Oeste 0 971.7 0.3 45
2017-08-05 20:00:00 32.9 24 Oeste 39 Oeste 0 971.4 -0.1 41
2017-08-05 19:00:00 36.2 12 Sudoeste 27 Oeste 0 971.1 -0.9 36
2017-08-05 18:00:00 35.1 14 Sudoeste 28 Oeste 0 971.4 -1.3 38
2017-08-05 17:00:00 38.5 6 Sudoeste 21 Oeste 0 971.5 -1.9 31
2017-08-05 16:00:00 36.4 10 Oeste 19 Oeste 0 972 -1.9 32
2017-08-05 15:00:00 36.2 6 Sur 17 Sudoeste 0 972.7 -1.6 32
2017-08-05 14:00:00 34.4 6 Sudoeste 17 Sudoeste 0 973.4 -0.9 36
2017-08-05 13:00:00 32.9 8 Sudoeste 17 Sudoeste 0 973.9 -0.3 40
2017-08-05 12:00:00 30.1 8 Sudeste 16 Sudeste 0 974.3 0.2 45
2017-08-05 11:00:00 28.7 5 Sudoeste 12 Sudoeste 0 974.3 0.7 52
2017-08-05 10:00:00 27.3 5 Sudoeste 13 Oeste 0 974.2 0.8 56
2017-08-05 09:00:00 24.2 7 Oeste 13 Oeste 0 974.1 1 68
2017-08-05 08:00:00 23.4 2 Oeste 8 Noroeste 0 973.6 0.4 68
2017-08-05 07:00:00 22 6 Oeste 14 Oeste 0 973.4 0.1 73
2017-08-05 06:00:00 22.4 5 Oeste 9 Oeste 0 973.1 0.1 67
2017-08-05 05:00:00 23.5 9 Oeste 14 Oeste 0 973.2 0.4 66
2017-08-05 04:00:00 24.1 7 Noroeste 14 Noroeste 0 973.3 0.6 56
2017-08-05 03:00:00 25.2 10 Oeste 17 Sudoeste 0 973 0.2 53
2017-08-05 02:00:00 26.4 5 Sudeste 17 Oeste 0 972.8 0.1 48
2017-08-05 01:00:00 26.6 4 Noroeste 11 Oeste 0 972.7 0.7 45
2017-08-05 00:00:00 26.7 9 Oeste 13 Oeste 0 972.8 1.2 45
2017-08-04 23:00:00 28.9 5 Sur 14 Oeste 0 972.7 1.2 47
2017-08-04 22:00:00 31.8 8 Oeste 14 Noroeste 0 972 0.4 32
2017-08-04 21:00:00 35.3 9 Noroeste 18 Oeste 0 971.6 -0.1 26
2017-08-04 20:00:00 37.2 5 Nordeste 20 Oeste 0 971.5 -0.9 31
2017-08-04 19:00:00 37.9 10 Oeste 28 Oeste 0 971.6 -1.1 27
2017-08-04 18:00:00 38.1 13 Sudoeste 33 Sudoeste 0 971.7 -1.8 25
2017-08-04 17:00:00 38 16 Sudoeste 29 Oeste 0 972.4 -1.6 25
2017-08-04 16:00:00 37.7 12 Sudoeste 23 Sudoeste 0 972.7 -1.9 29
2017-08-04 15:00:00 35.9 12 Sudoeste 25 Oeste 0 973.5 -1.5 31
2017-08-04 14:00:00 34.6 11 Sudoeste 25 Oeste 0 974 -1.1 35
2017-08-04 13:00:00 33.1 10 Sudoeste 24 Sudoeste 0 974.6 -0.2 39
2017-08-04 12:00:00 30.5 9 Sudoeste 19 Sudoeste 0 975 0.5 45
2017-08-04 11:00:00 28.1 8 Sudoeste 20 Sudoeste 0 975.1 1 52
2017-08-04 10:00:00 25.3 11 Sudoeste 24 Oeste 0 974.8 1.1 63
2017-08-04 09:00:00 22.7 13 Oeste 19 Oeste 0 974.5 1.3 70
2017-08-04 08:00:00 20.8 6 Oeste 15 Oeste 0 974.1 1 76
2017-08-04 07:00:00 20.6 8 Oeste 15 Oeste 0 973.7 0.7 79
2017-08-04 06:00:00 21.5 12 Oeste 15 Oeste 0 973.2 0.2 76
2017-08-04 05:00:00 22.7 5 Noroeste 10 Noroeste 0 973.1 0 58
2017-08-04 04:00:00 22.9 4 Oeste 9 Oeste 0 973 -0.1 57
2017-08-04 03:00:00 23.9 4 Oeste 8 Oeste 0 973 0 56
2017-08-04 02:00:00 25.7 3 Norte 6 Noroeste 0 973.1 0.3 49
2017-08-04 01:00:00 26.3 4 Norte 7 Nordeste 0 973.1 0.7 49
2017-08-04 00:00:00 27.6 5 Nordeste 14 Este 0 973 1.2 48
2017-08-03 23:00:00 28.6 6 Este 13 Este 0 972.8 1.1 46
2017-08-03 22:00:00 30.2 7 Este 18 Este 0 972.4 0.5 44
2017-08-03 21:00:00 34 5 Nordeste 14 Nordeste 0 971.8 -0.4 35
2017-08-03 20:00:00 36.1 10 Nordeste 15 Nordeste 0 971.7 -0.9 28
2017-08-03 19:00:00 37.4 7 Sudeste 17 Este 0 971.9 -1.2 22
2017-08-03 18:00:00 37.3 9 Este 19 Oeste 0 972.2 -1.5 23
2017-08-03 17:00:00 38.1 8 Sudeste 18 Sudeste 0 972.6 -1.8 19
2017-08-03 16:00:00 36.9 9 Este 24 Este 0 973.1 -1.7 32
2017-08-03 15:00:00 36 7 Este 13 Nordeste 0 973.7 -1.5 31
2017-08-03 14:00:00 34.9 10 Este 18 Este 0 974.4 -1 35
2017-08-03 13:00:00 34.1 9 Nordeste 24 Oeste 0 974.8 -0.7 38
2017-08-03 12:00:00 32.7 14 Oeste 24 Oeste 0 975.2 -0.3 35
2017-08-03 11:00:00 30.4 8 Oeste 14 Oeste 0 975.4 0.1 38
2017-08-03 10:00:00 28.1 4 Nordeste 10 Nordeste 0 975.5 0.3 46
2017-08-03 09:00:00 26 5 Norte 10 Norte 0 975.5 0.6 57
2017-08-03 08:00:00 23.8 7 Noroeste 12 Noroeste 0 975.3 0.4 61
2017-08-03 07:00:00 23.4 7 Noroeste 13 Noroeste 0 975.2 0.1 62
2017-08-03 06:00:00 23.5 5 Norte 14 Norte 0 974.9 0.1 60
2017-08-03 05:00:00 23.4 7 Norte 12 Norte 0 974.9 -0.4 60
2017-08-03 04:00:00 23.3 5 Norte 12 Nordeste 0 975.1 -0.4 61
2017-08-03 03:00:00 23.2 7 Nordeste 12 Nordeste 0 974.8 -0.8 65
2017-08-03 02:00:00 23.6 6 Nordeste 11 Este 0 975.3 -0.2 67
2017-08-03 01:00:00 23.4 9 Este 17 Este 0 975.5 0.6 70
2017-08-03 00:00:00 24.4 3 Norte 11 Este 0 975.6 1.5 64
2017-08-02 23:00:00 25.5 10 Este 16 Este 0 975.5 1.7 63
2017-08-02 22:00:00 26.8 13 Este 17 Este 0 974.9 0.8 60
2017-08-02 21:00:00 28.8 9 Este 22 Nordeste 0 974.1 -0.1 54
2017-08-02 20:00:00 31.2 14 Este 25 Este 0 973.8 -1.7 47
2017-08-02 19:00:00 32.4 12 Este 22 Este 0 974.1 -1.6 35
2017-08-02 18:00:00 30.4 13 Este 32 Este 0 974.2 -1.9 42
2017-08-02 17:00:00 34 14 Sur 42 Sudoeste 0 975.5 -1.2 27
2017-08-02 16:00:00 35.2 17 Sur 37 Sur 0 975.7 -1.6 25
2017-08-02 15:00:00 33.9 10 Sur 33 Sudoeste 0 976.1 -0.8 28
2017-08-02 14:00:00 34 14 Sudoeste 35 Sudoeste 0 976.7 -0.1 29
2017-08-02 13:00:00 32.7 9 Sur 20 Sur 0 977.3 0.8 44
2017-08-02 12:00:00 28.7 4 Este 15 Este 0 976.9 0.5 55
2017-08-02 11:00:00 27.1 10 Este 17 Nordeste 0 976.8 0.3 63
2017-08-02 10:00:00 25.3 8 Nordeste 13 Nordeste 0 976.5 0.8 70
2017-08-02 09:00:00 23.7 8 Nordeste 12 Norte 0 976.4 0.9 73
2017-08-02 08:00:00 21.6 5 Oeste 10 Norte 0 976.5 1.1 80
2017-08-02 07:00:00 22.7 8 Norte 13 Noroeste 0 975.7 -0.1 74
2017-08-02 06:00:00 23 8 Norte 18 Norte 0 975.5 0.2 75
2017-08-02 05:00:00 22.5 8 Norte 14 Noroeste 0 975.4 -0.1 78
2017-08-02 04:00:00 22.7 5 Norte 12 Nordeste 0 975.8 0.4 80
2017-08-02 03:00:00 22.5 8 Nordeste 15 Nordeste 0 975.3 0.3 83
2017-08-02 02:00:00 22 10 Este 22 Este 0 975.5 0.9 83
2017-08-02 01:00:00 22.5 12 Este 17 Este 0 975.4 1.9 83
2017-08-02 00:00:00 23.4 5 Norte 18 Nordeste 0 975 2.5 81
2017-08-01 23:00:00 24 10 Nordeste 16 Nordeste 0 974.6 3 81
2017-08-01 22:00:00 24.9 9 Nordeste 21 Nordeste 0 973.5 2.2 70
2017-08-01 21:00:00 27.1 14 Nordeste 25 Nordeste 0 972.5 0.8 67
2017-08-01 20:00:00 29.6 11 Nordeste 23 Nordeste 0 971.6 -0.5 52
2017-08-01 19:00:00 30.1 13 Nordeste 26 Nordeste 0 971.3 -1.3 48
2017-08-01 18:00:00 30 14 Este 24 Este 0 971.7 -0.9 51
2017-08-01 17:00:00 29.2 11 Este 18 Este 0 972.1 -0.1 53
2017-08-01 16:00:00 27.6 8 Este 12 Nordeste 0 972.6 0.4 65
2017-08-01 15:00:00 28 5 Nordeste 12 Sudeste 0 972.6 -0.1 60
2017-08-01 14:00:00 27.9 5 Sur 18 Oeste 0 972.2 -0.1 53
2017-08-01 13:00:00 26.9 4 Sudoeste 19 Sur 0 972.2 0.4 58
2017-08-01 12:00:00 27 6 Sur 21 Oeste 0 972.7 1.6 56
2017-08-01 11:00:00 24.5 13 Oeste 23 Sudoeste 0 972.3 1.9 63
2017-08-01 10:00:00 23.1 10 Sudoeste 24 Oeste 0 971.8 1.7 66
2017-08-01 09:00:00 21 12 Sudoeste 24 Oeste 0 971.1 1.7 71
2017-08-01 08:00:00 19.9 16 Oeste 31 Sudoeste 0 970.4 1.6 75
2017-08-01 07:00:00 19.2 11 Oeste 20 Oeste 0 970.1 0.6 78
2017-08-01 06:00:00 18.7 5 Oeste 17 Oeste 0 969.4 0.1 81
2017-08-01 05:00:00 19.2 12 Oeste 21 Oeste 0 968.8 0.2 80
2017-08-01 04:00:00 20.6 6 Oeste 9 Sudoeste 0 969.5 1.2 79
2017-08-01 03:00:00 22.2 2 Norte 5 Sur 0 969.3 1.8 83
2017-08-01 02:00:00 23.2 4 Nordeste 14 Nordeste 0 968.6 1.7 79
2017-08-01 01:00:00 23.5 8 Norte 15 Nordeste 0 968.3 2.5 78
2017-08-01 00:00:00 23.5 12 Nordeste 18 Nordeste 0 967.5 2.4 76
2017-07-31 23:00:00 24.5 8 Nordeste 17 Nordeste 0 966.9 2.3 70
2017-07-31 22:00:00 25.6 12 Este 25 Este 0 965.8 1 65
2017-07-31 21:00:00 28.3 9 Nordeste 32 Este 0 965.1 0 54
2017-07-31 20:00:00 30.9 19 Este 31 Este 0 964.6 -1.2 45
2017-07-31 19:00:00 33.2 15 Este 25 Este 0 964.8 -1.9 40
2017-07-31 18:00:00 34.3 16 Este 27 Este 0 965.1 -2.5 38
2017-07-31 17:00:00 34.4 17 Nordeste 32 Nordeste 0 965.8 -2.5 40
2017-07-31 16:00:00 33.5 18 Este 33 Nordeste 0 966.7 -2.4 46
2017-07-31 15:00:00 32.6 15 Nordeste 28 Nordeste 0 967.6 -2.3 49
2017-07-31 14:00:00 30.8 12 Este 22 Este 0 968.3 -1.7 53
2017-07-31 13:00:00 28.3 11 Nordeste 23 Nordeste 0 969.1 -1 59
2017-07-31 12:00:00 26.3 9 Este 18 Nordeste 0 969.9 -0.2 64
2017-07-31 11:00:00 24 6 Este 11 Nordeste 0 970 0.4 68
2017-07-31 10:00:00 22.2 4 Sudeste 10 Oeste 0 970.1 0.7 69
2017-07-31 09:00:00 20.2 6 Sudoeste 12 Sudoeste 0 970.1 1 74
2017-07-31 08:00:00 18 5 Oeste 14 Oeste 0 969.6 0.2 83
2017-07-31 07:00:00 17.6 11 Oeste 16 Sudoeste 0 969.4 0 83
2017-07-31 06:00:00 18.2 10 Oeste 14 Oeste 0 969.1 -0.3 82
2017-07-31 05:00:00 19.5 8 Oeste 12 Oeste 0 969.4 -0.2 80
2017-07-31 04:00:00 21.8 3 Nordeste 9 Nordeste 0 969.4 0.1 81
2017-07-31 03:00:00 22.6 6 Norte 14 Nordeste 0 969.4 1 78
2017-07-31 02:00:00 23.2 6 Norte 13 Nordeste 0 969.6 1.4 79
2017-07-31 01:00:00 24 6 Norte 25 Nordeste 0 969.3 1.5 80
2017-07-31 00:00:00 24.3 17 Nordeste 28 Este 0 968.4 0.9 80
2017-07-30 23:00:00 25.4 19 Este 30 Este 0 968.2 0.9 75
2017-07-30 22:00:00 26.6 21 Este 31 Este 0 967.8 0.3 71
2017-07-30 21:00:00 28.1 17 Este 27 Este 0 967.5 0 62
2017-07-30 20:00:00 31 17 Este 30 Este 0 967.3 -0.6 46
2017-07-30 19:00:00 33.8 20 Este 36 Este 0 967.5 -1.2 41
2017-07-30 18:00:00 36.9 14 Nordeste 24 Nordeste 0 967.5 -2 32
2017-07-30 17:00:00 37.2 9 Nordeste 24 Nordeste 0 967.9 -2.2 32
2017-07-30 16:00:00 36.1 12 Nordeste 24 Nordeste 0 968.7 -2.2 31
2017-07-30 15:00:00 35 11 Nordeste 21 Nordeste 0 969.5 -2.1 40
2017-07-30 14:00:00 33.3 9 Nordeste 18 Este 0 970.1 -1.6 46
2017-07-30 13:00:00 30.7 11 Este 18 Este 0 970.9 -1 52
2017-07-30 12:00:00 28.6 7 Este 16 Este 0 971.6 -0.3 59
2017-07-30 11:00:00 26.9 7 Nordeste 15 Nordeste 0 971.7 0.4 64
2017-07-30 10:00:00 25.3 6 Nordeste 13 Nordeste 0 971.9 0.7 70
2017-07-30 09:00:00 23.3 5 Norte 12 Nordeste 0 971.9 0.8 74
2017-07-30 08:00:00 21.1 4 Norte 14 Norte 0 971.3 0 76
2017-07-30 07:00:00 20.9 4 Norte 9 Noroeste 0 971.2 -0.1 75
2017-07-30 06:00:00 21.1 4 Norte 12 Nordeste 0 971.1 -0.5 73
2017-07-30 05:00:00 21.8 7 Norte 14 Norte 0 971.3 -0.5 70
2017-07-30 04:00:00 22.3 5 Norte 16 Norte 0 971.3 -0.6 73
2017-07-30 03:00:00 22.6 8 Norte 17 Norte 0 971.6 0.3 77
2017-07-30 02:00:00 23.5 4 Norte 12 Nordeste 0 971.8 -0.2 78
2017-07-30 01:00:00 23.9 9 Nordeste 13 Nordeste 0 971.9 0.3 81
2017-07-30 00:00:00 24.7 13 Este 22 Este 0 971.3 0.2 79
2017-07-29 23:00:00 25.5 5 Nordeste 18 Sudeste 0 972 1.2 76
2017-07-29 22:00:00 27.2 11 Este 20 Sudeste 0 971.6 0.8 69
2017-07-29 21:00:00 29.6 12 Este 22 Este 0 971.1 0 60
2017-07-29 20:00:00 32.2 14 Este 27 Este 0 970.8 -0.8 52
2017-07-29 19:00:00 33.7 18 Este 27 Este 0 970.8 -1.3 47
2017-07-29 18:00:00 35.4 10 Este 16 Este 0 971.1 -1.7 32
2017-07-29 17:00:00 35.1 6 Este 18 Nordeste 0 971.6 -1.9 33
2017-07-29 16:00:00 34.1 9 Nordeste 18 Nordeste 0 972.1 -1.9 40
2017-07-29 15:00:00 33.3 7 Norte 16 Nordeste 0 972.8 -1.7 43
2017-07-29 14:00:00 31.9 9 Este 18 Este 0 973.5 -1.3 47
2017-07-29 13:00:00 30.3 10 Este 20 Este 0 974 -1 51
2017-07-29 12:00:00 27.6 10 Este 18 Este 0 974.5 0 62
2017-07-29 11:00:00 25.7 8 Este 18 Nordeste 0 974.8 0.5 73
2017-07-29 10:00:00 23.9 10 Este 20 Este 0 975 1.1 79
2017-07-29 09:00:00 22.1 8 Nordeste 17 Nordeste 0 974.5 0.8 86
2017-07-29 08:00:00 20.7 5 Norte 10 Norte 0 974.3 0.6 88
2017-07-29 07:00:00 20.2 5 Norte 10 Nordeste 0 973.9 0 87
2017-07-29 06:00:00 20.5 4 Norte 11 Nordeste 0 973.7 -0.4 84
2017-07-29 05:00:00 20.7 5 Norte 10 Nordeste 0 973.7 -0.4 83
2017-07-29 04:00:00 21.2 5 Nordeste 11 Nordeste 0 973.9 0 82
2017-07-29 03:00:00 22.1 6 Nordeste 13 Nordeste 0 974.1 0.4 80
2017-07-29 02:00:00 22.8 6 Norte 14 Nordeste 0 974.1 0.6 78
2017-07-29 01:00:00 23.8 4 Norte 12 Nordeste 0 973.9 1.1 75
2017-07-29 00:00:00 24.8 5 Nordeste 9 Este 0 973.7 1.6 71
2017-07-28 23:00:00 26.2 3 Este 9 Este 0 973.5 1.7 64
2017-07-28 22:00:00 26.7 8 Sudeste 15 Este 0 972.8 1 64
2017-07-28 21:00:00 29.4 10 Este 23 Sudeste 0 972.1 -0.1 56
2017-07-28 20:00:00 32.6 13 Este 24 Este 0 971.8 -0.8 49
2017-07-28 19:00:00 34.6 7 Este 12 Nordeste 0 971.8 -1.5 39
2017-07-28 18:00:00 34.7 6 Este 11 Este 0 972.2 -1.8 36
2017-07-28 17:00:00 33.2 7 Este 14 Nordeste 0 972.6 -2 37
2017-07-28 16:00:00 33.2 5 Sudeste 12 Sur 0 973.3 -1.5 38
2017-07-28 15:00:00 31.7 4 Este 15 Nordeste 0 974 -0.9 40
2017-07-28 14:00:00 30.4 7 Nordeste 15 Este 0 974.6 -0.1 45
2017-07-28 13:00:00 29.6 6 Este 15 Este 0 974.8 0 46
2017-07-28 12:00:00 27.6 8 Este 14 Este 0 974.9 0.5 52
2017-07-28 11:00:00 25.6 4 Sudoeste 13 Sudoeste 0 974.7 0.9 55
2017-07-28 10:00:00 23.2 5 Sudoeste 11 Oeste 0 974.8 1.5 63
2017-07-28 09:00:00 20.9 6 Sudoeste 15 Oeste 0 974.4 1.4 74
2017-07-28 08:00:00 18.5 10 Oeste 18 Oeste 0 973.8 1.2 82
2017-07-28 07:00:00 18.1 8 Oeste 14 Oeste 0 973.3 1 83
2017-07-28 06:00:00 18.7 6 Oeste 15 Oeste 0 973 0.9 79
2017-07-28 05:00:00 19.2 6 Sudoeste 11 Oeste 0 972.6 0.9 77
2017-07-28 04:00:00 19.8 7 Oeste 10 Sudoeste 0 972.3 0.7 70
2017-07-28 03:00:00 21.6 6 Oeste 10 Oeste 0 972.1 0.7 63
2017-07-28 02:00:00 24.9 4 Nordeste 10 Este 0 971.7 0.6 62
2017-07-28 01:00:00 25 4 Norte 8 Nordeste 0 971.6 1.2 57
2017-07-28 00:00:00 26.4 6 Nordeste 10 Nordeste 0 971.4 1.7 53
2017-07-27 23:00:00 27.9 4 Nordeste 9 Este 0 971.1 1.7 43
2017-07-27 22:00:00 29.8 8 Este 10 Este 0 970.4 0.9 37
2017-07-27 21:00:00 32.2 6 Nordeste 12 Este 0 969.7 0 32
2017-07-27 20:00:00 35.2 4 Norte 13 Nordeste 0 969.4 -1 25
2017-07-27 19:00:00 35.4 8 Nordeste 18 Nordeste 0 969.5 -1.6 27
2017-07-27 18:00:00 35.4 11 Nordeste 30 Oeste 0 969.7 -2 25
2017-07-27 17:00:00 36.6 14 Oeste 30 Oeste 0 970.4 -2.1 19
2017-07-27 16:00:00 35.8 13 Oeste 24 Oeste 0 971.1 -1.8 20
2017-07-27 15:00:00 34.7 6 Sudoeste 15 Sudoeste 0 971.7 -1.6 25
2017-07-27 14:00:00 33.1 8 Sudoeste 16 Oeste 0 972.5 -1.1 28
2017-07-27 13:00:00 30.8 9 Sudoeste 22 Oeste 0 972.9 -0.9 29
2017-07-27 12:00:00 28.8 15 Oeste 26 Oeste 0 973.3 -0.8 30
2017-07-27 11:00:00 25.8 9 Oeste 17 Oeste 0 973.6 0.1 39
2017-07-27 10:00:00 23.1 6 Sudeste 11 Sudeste 0 973.8 0.7 50
2017-07-27 09:00:00 19.9 2 Sudoeste 6 Sur 0 974.1 1.5 64
2017-07-27 08:00:00 17.7 3 Noroeste 9 Oeste 0 973.5 1.2 67
2017-07-27 07:00:00 17.2 8 Oeste 19 Oeste 0 973.1 0.7 73
2017-07-27 06:00:00 18.3 15 Oeste 31 Oeste 0 972.6 0 68
2017-07-27 05:00:00 19.2 23 Oeste 34 Oeste 0 972.3 -0.3 66
2017-07-27 04:00:00 19.2 21 Oeste 34 Oeste 0 972.4 0 65
2017-07-27 03:00:00 19.9 15 Sudoeste 30 Oeste 0 972.6 0.2 62
2017-07-27 02:00:00 20.4 13 Sudoeste 30 Oeste 0 972.6 0.4 58
2017-07-27 01:00:00 21.2 20 Oeste 30 Oeste 0 972.4 0.7 53
2017-07-27 00:00:00 21.9 18 Oeste 35 Oeste 0 972.4 1.3 47
2017-07-26 23:00:00 24.3 21 Oeste 36 Oeste 0 972.2 1.4 39
2017-07-26 22:00:00 26.2 21 Oeste 30 Oeste 0 971.7 1 35
2017-07-26 21:00:00 29 19 Oeste 41 Oeste 0 971.1 0.2 27
2017-07-26 20:00:00 30.1 29 Oeste 42 Oeste 0 970.8 -0.3 31
2017-07-26 19:00:00 31.2 26 Oeste 44 Oeste 0 970.7 -1.2 32
2017-07-26 18:00:00 31.7 27 Oeste 41 Oeste 0 970.9 -1.5 32
2017-07-26 17:00:00 31.8 14 Sudoeste 36 Oeste 0 971.1 -1.9 31
2017-07-26 16:00:00 30.4 21 Oeste 37 Sudoeste 0 971.9 -1.7 32
2017-07-26 15:00:00 28.8 17 Oeste 40 Oeste 0 972.4 -1.7 33
2017-07-26 14:00:00 26.7 13 Oeste 27 Oeste 0 973 -1.2 35
2017-07-26 13:00:00 24.9 20 Oeste 31 Oeste 0 973.6 -0.8 39
2017-07-26 12:00:00 22.7 17 Oeste 31 Oeste 0 974.1 0.1 48
2017-07-26 11:00:00 20.4 21 Oeste 37 Oeste 0 974.2 0.5 56
2017-07-26 10:00:00 18.5 25 Oeste 39 Oeste 0 974.4 1 61
2017-07-26 09:00:00 16.7 23 Oeste 36 Sudoeste 0 974 1.2 68
2017-07-26 08:00:00 14.4 11 Sudoeste 27 Oeste 0 973.7 0.9 75
2017-07-26 07:00:00 14.2 17 Oeste 31 Oeste 0 973.4 0.6 76
2017-07-26 06:00:00 14.5 20 Oeste 45 Sudoeste 0 972.8 0 75
2017-07-26 05:00:00 15 24 Oeste 42 Oeste 0 972.8 -0.1 72
2017-07-26 04:00:00 15.7 30 Oeste 45 Oeste 0 972.8 0 70
2017-07-26 03:00:00 16.2 30 Oeste 51 Oeste 0 972.8 0.3 70
2017-07-26 02:00:00 16.5 30 Oeste 51 Sudoeste 0 972.9 0.4 67
2017-07-26 01:00:00 17.1 34 Oeste 56 Oeste 0 972.8 0.8 64
2017-07-26 00:00:00 17.5 33 Oeste 59 Oeste 0 972.5 1 63
2017-07-25 23:00:00 18.9 40 Oeste 59 Oeste 0 972.5 0.8 56
2017-07-25 22:00:00 20.2 28 Oeste 57 Oeste 0 972 0.4 53
2017-07-25 21:00:00 22.6 36 Oeste 54 Oeste 0 971.5 -0.4 45
2017-07-25 20:00:00 23.7 33 Oeste 57 Oeste 0 971.7 -0.6 44
2017-07-25 19:00:00 26 36 Oeste 58 Oeste 0 971.6 -1.3 39
2017-07-25 18:00:00 26.9 35 Oeste 53 Oeste 0 971.9 -1.5 37
2017-07-25 17:00:00 26.7 27 Oeste 46 Oeste 0 972.3 -1.7 38
2017-07-25 16:00:00 27.7 26 Oeste 44 Oeste 0 972.9 -1.6 35
2017-07-25 15:00:00 27 27 Oeste 41 Oeste 0 973.4 -1.4 36
2017-07-25 14:00:00 26.5 24 Oeste 39 Sudoeste 0 974 -1 36
2017-07-25 13:00:00 25.3 19 Oeste 39 Oeste 0 974.5 -0.7 39
2017-07-25 12:00:00 23.6 21 Oeste 36 Oeste 0 974.8 -0.3 44
2017-07-25 11:00:00 22 17 Sudoeste 32 Oeste 0 975 0.2 49
2017-07-25 10:00:00 20 21 Oeste 33 Oeste 0 975.2 0.6 55
2017-07-25 09:00:00 17.8 21 Oeste 36 Oeste 0 975.1 0.5 61
2017-07-25 08:00:00 15.6 20 Oeste 35 Oeste 0 974.8 0.2 72
2017-07-25 07:00:00 15.1 21 Oeste 39 Oeste 0 974.6 -0.4 76
2017-07-25 06:00:00 15.6 23 Oeste 40 Sudoeste 0 974.6 -0.8 75
2017-07-25 05:00:00 16 27 Oeste 46 Sudoeste 0 974.6 -1 74
2017-07-25 04:00:00 16.4 27 Oeste 49 Oeste 0 975 -0.5 72
2017-07-25 03:00:00 16.9 30 Oeste 53 Sudoeste 0 975.4 0 70
2017-07-25 02:00:00 17.3 18 Sudoeste 53 Oeste 0 975.6 0.4 71
2017-07-25 01:00:00 18.1 23 Oeste 43 Oeste 0 975.5 0.6 68
2017-07-25 00:00:00 19 30 Oeste 44 Oeste 0 975.4 0.9 64
2017-07-24 23:00:00 20.3 28 Oeste 47 Oeste 0 975.2 1 59
2017-07-24 22:00:00 21.7 28 Oeste 46 Oeste 0 974.9 0.7 53
2017-07-24 21:00:00 23.9 29 Oeste 50 Noroeste 0 974.5 0.5 46
2017-07-24 20:00:00 25.9 35 Oeste 61 Oeste 0 974.2 0 42
2017-07-24 19:00:00 27.2 44 Oeste 67 Oeste 0 974.2 -0.2 37
2017-07-24 18:00:00 27.6 44 Oeste 65 Oeste 0 974 -0.9 38
2017-07-24 17:00:00 29.1 40 Oeste 65 Sudoeste 0 974.2 -1.1 33
2017-07-24 16:00:00 28.3 43 Oeste 66 Oeste 0 974.4 -1.2 34
2017-07-24 15:00:00 28.2 38 Oeste 67 Oeste 0 974.9 -1 37
2017-07-24 14:00:00 27.7 39 Oeste 60 Oeste 0 975.3 -0.2 38
2017-07-24 13:00:00 26.7 40 Oeste 58 Oeste 0 975.6 -0.1 43
2017-07-24 12:00:00 25.6 44 Oeste 59 Oeste 0 975.9 0.2 45
2017-07-24 11:00:00 25.1 39 Oeste 57 Oeste 0 975.5 0 49
2017-07-24 10:00:00 23.4 34 Oeste 55 Oeste 0 975.7 0.4 54
2017-07-24 09:00:00 20.4 18 Oeste 38 Oeste 0 975.7 0.6 69
2017-07-24 08:00:00 18.1 14 Sudoeste 33 Oeste 0 975.5 0.5 77
2017-07-24 07:00:00 17.4 18 Sudoeste 39 Sudoeste 0 975.3 -0.3 79
2017-07-24 06:00:00 17.4 26 Oeste 38 Oeste 0 975.1 -0.5 77
2017-07-24 05:00:00 17.6 23 Oeste 36 Oeste 0 975 -0.9 72
2017-07-24 04:00:00 18 16 Oeste 31 Oeste 0 975.6 -0.3 66
2017-07-24 03:00:00 18.5 22 Oeste 33 Sudoeste 0 975.6 0.1 61
2017-07-24 02:00:00 19.5 15 Sudoeste 27 Sudoeste 0 975.9 0.8 57
2017-07-24 01:00:00 20.6 13 Sudoeste 21 Sudoeste 0 975.9 1.5 51
2017-07-24 00:00:00 20.9 0 Calma 9 Nordeste 0 975.5 1.5 70
2017-07-23 23:00:00 22 5 Sur 13 Sur 0 975.1 1.3 66
2017-07-23 22:00:00 24.4 6 Sudoeste 12 Sudoeste 0 974.4 0.6 57
2017-07-23 21:00:00 26.4 5 Sur 13 Sur 0 974 0 55
2017-07-23 20:00:00 27.4 7 Sur 25 Sur 0 973.8 -0.6 49
2017-07-23 19:00:00 27.1 15 Sudeste 26 Sudeste 0 973.8 -1.9 52
2017-07-23 18:00:00 27.1 15 Este 29 Este 0 974 -2.1 54
2017-07-23 17:00:00 25.8 9 Nordeste 21 Este 0 974.4 -2.5 61
2017-07-23 16:00:00 26.7 8 Nordeste 19 Nordeste 0 975.7 -1.5 59
2017-07-23 15:00:00 27 6 Nordeste 17 Nordeste 0 976.1 -1.7 59
2017-07-23 14:00:00 27.5 4 Noroeste 13 Sur 0 976.9 -0.7 51
2017-07-23 13:00:00 25.3 6 Sudoeste 16 Oeste 0 977.2 -0.5 53
2017-07-23 12:00:00 24 5 Sur 13 Sudoeste 0 977.8 0.8 56
2017-07-23 11:00:00 22.2 8 Sudoeste 18 Oeste 0 977.6 0.8 62
2017-07-23 10:00:00 20 9 Sudoeste 19 Oeste 0 977.7 1.1 69
2017-07-23 09:00:00 18.6 14 Oeste 24 Sudoeste 0 977 0.9 73
2017-07-23 08:00:00 18.5 15 Oeste 27 Oeste 0 976.8 1.1 75
2017-07-23 07:00:00 18.3 18 Oeste 28 Oeste 0 976.6 1.4 76
2017-07-23 06:00:00 18.5 19 Oeste 30 Oeste 0 976.1 1 76
2017-07-23 05:00:00 19.2 17 Oeste 27 Oeste 0 975.7 1 74
2017-07-23 04:00:00 19.3 9 Oeste 17 Oeste 0 975.2 1 78
2017-07-23 03:00:00 19.1 8 Oeste 21 Sudoeste 0 975.1 1.5 79
2017-07-23 02:00:00 21.7 7 Sur 15 Sudoeste 0 974.7 1.3 78
2017-07-23 01:00:00 23 3 Nordeste 7 Noroeste 0 974.2 1.7 85
2017-07-23 00:00:00 23.1 6 Nordeste 10 Este 0 973.6 2 84